Elissa — WDD9058 — position and weather

sailwx.info

Track history (hours):
 
Tides and Currents Weather Stations Pressure Air Temp Water Temp Dewpoint Dewpoint Depression Visibility Wind Speed Wind Dir Waves Ship Positions

Elissa

Owner: Ingram Barge Company, Nashville, TN. More information available from US FCC via Universal Licensing System and Coast Guard Vessel Documentation Center.

Last reported at 2016-Jul-27 03:33 UTC. Time now 2016-Jul-27 03:46 UTC.
Position N 29°59' W 090°01'.

Length 26 m; draft 3.6 m.

Type: Towing. MMSI: 367306290.

Date/timePositionNaut miles runAvg speedWind from/ knotsBaromVisibWave heightAir tempDewpointWater temp
2016-Jul-27 03:33N 29°59' W 090°01'1 1.4
2016-Jul-27 02:33N 29°60' W 090°00'0 0.1
2016-Jul-27 01:33N 29°60' W 090°00'0 0.0
2016-Jul-27 00:33N 29°60' W 090°00'0 0.0
2016-Jul-26 23:33N 29°60' W 090°00'0 0.0
2016-Jul-26 22:33N 29°60' W 090°00'0 0.0
2016-Jul-26 21:33N 29°60' W 090°00'0 0.0
2016-Jul-26 20:33N 29°60' W 090°00'0 0.0
2016-Jul-26 19:33N 29°60' W 090°00'0 0.0
2016-Jul-26 18:33N 29°60' W 090°00'0 0.0
2016-Jul-26 17:33N 29°60' W 090°00'0 0.0
2016-Jul-26 16:33N 29°60' W 090°00'0 0.0
2016-Jul-26 15:33N 29°60' W 090°00'0 0.0
2016-Jul-26 14:33N 29°60' W 090°00'0 0.0
2016-Jul-26 13:33N 29°60' W 090°00'0 0.0
2016-Jul-26 12:33N 29°60' W 090°00'0 0.0
2016-Jul-26 11:33N 29°60' W 090°00'0 0.0
2016-Jul-26 10:33N 29°60' W 090°00'0 0.0
2016-Jul-26 09:33N 29°60' W 090°00'0 0.0
2016-Jul-26 08:33N 29°60' W 090°00'0 0.0
2016-Jul-26 07:33N 29°60' W 090°00'0 0.0
2016-Jul-26 06:33N 29°60' W 090°00'0 0.0
2016-Jul-26 05:33N 29°60' W 090°00'0 0.0
2016-Jul-26 04:33N 29°60' W 090°00'0 0.0
2016-Jul-26 03:33N 29°60' W 090°00'0 0.0
2016-Jul-26 02:33N 29°60' W 090°00'0 0.0
2016-Jul-26 01:33N 29°60' W 090°00'0 0.0
2016-Jul-26 00:33N 29°60' W 090°00'0 0.0
2016-Jul-25 23:33N 29°60' W 090°00'0 0.0
2016-Jul-25 22:33N 29°60' W 090°00'0 0.2
2016-Jul-25 21:33N 29°60' W 090°00'5 4.8
2016-Jul-25 20:28N 30°01' W 089°54'0 0.1
2016-Jul-25 19:33N 30°01' W 089°54'0 0.2
2016-Jul-25 18:28N 30°02' W 089°54'  
2016-Jul-22 08:23N 30°01' W 089°54'1 0.7
2016-Jul-22 07:33N 30°01' W 089°54'4 1.3
2016-Jul-22 04:33N 29°60' W 089°59'3 2.9
2016-Jul-22 03:33N 29°58' W 090°01'1 0.8
2016-Jul-22 02:33N 29°58' W 090°02'0 0.0
2016-Jul-22 01:33N 29°58' W 090°02'0 0.0
2016-Jul-22 00:33N 29°58' W 090°02'1 0.6
2016-Jul-21 23:33N 29°57' W 090°02'0 0.0
2016-Jul-21 22:33N 29°57' W 090°02'0 0.0
2016-Jul-21 21:33N 29°57' W 090°02'0 0.0
2016-Jul-21 20:33N 29°57' W 090°02'0 0.0
2016-Jul-21 19:33N 29°57' W 090°02'0 0.0
2016-Jul-21 18:33N 29°57' W 090°02'0 0.0
2016-Jul-21 17:33N 29°57' W 090°02'0 0.0
2016-Jul-21 16:33N 29°57' W 090°02'0 0.0
2016-Jul-21 15:33N 29°57' W 090°02'0 0.0
2016-Jul-21 14:33N 29°57' W 090°02'0 0.0
2016-Jul-21 13:33N 29°57' W 090°02'0 0.0
2016-Jul-21 12:33N 29°57' W 090°02'0 0.0
2016-Jul-21 11:33N 29°57' W 090°02'0 0.0
2016-Jul-21 10:33N 29°57' W 090°02'0 0.0
2016-Jul-21 09:33N 29°57' W 090°02'0 0.0
2016-Jul-21 08:33N 29°57' W 090°02'0 0.0
2016-Jul-21 07:33N 29°57' W 090°02'0 0.0
2016-Jul-21 06:33N 29°57' W 090°02'3 3.2
2016-Jul-21 05:33N 29°55' W 090°05'5 4.4
2016-Jul-21 04:32N 29°57' W 090°10'0 0.1
2016-Jul-21 03:33N 29°57' W 090°10'0 0.0
2016-Jul-21 02:33N 29°57' W 090°10'3 2.9
2016-Jul-21 01:33N 29°55' W 090°12'  
2016-Jul-18 01:33N 29°56' W 090°12'2 2.0
2016-Jul-18 00:33N 29°57' W 090°10'0 0.0
2016-Jul-17 23:34N 29°57' W 090°10'0 0.2
2016-Jul-17 22:33N 29°57' W 090°10'0 0.4
2016-Jul-17 21:33N 29°57' W 090°10'  
Track history (hours):
 
Tides and Currents Weather Stations Pressure Air Temp Water Temp Dewpoint Dewpoint Depression Visibility Wind Speed Wind Dir Waves Ship Positions

Elissa

Owner: Ingram Barge Company, Nashville, TN. More information available from US FCC via Universal Licensing System and Coast Guard Vessel Documentation Center.

Last reported at 2016-Jul-27 03:33 UTC. Time now 2016-Jul-27 03:46 UTC.
Position N 29°59' W 090°01'.

Length 26 m; draft 3.6 m.

Type: Towing. MMSI: 367306290.

Date/timePositionNaut miles runAvg speedWind from/ knotsBaromVisibWave heightAir tempDewpointWater temp
2016-Jul-27 03:33N 29°59' W 090°01'1 1.4
2016-Jul-27 02:33N 29°60' W 090°00'0 0.1
2016-Jul-27 01:33N 29°60' W 090°00'0 0.0
2016-Jul-27 00:33N 29°60' W 090°00'0 0.0
2016-Jul-26 23:33N 29°60' W 090°00'0 0.0
2016-Jul-26 22:33N 29°60' W 090°00'0 0.0
2016-Jul-26 21:33N 29°60' W 090°00'0 0.0
2016-Jul-26 20:33N 29°60' W 090°00'0 0.0
2016-Jul-26 19:33N 29°60' W 090°00'0 0.0
2016-Jul-26 18:33N 29°60' W 090°00'0 0.0
2016-Jul-26 17:33N 29°60' W 090°00'0 0.0
2016-Jul-26 16:33N 29°60' W 090°00'0 0.0
2016-Jul-26 15:33N 29°60' W 090°00'0 0.0
2016-Jul-26 14:33N 29°60' W 090°00'0 0.0
2016-Jul-26 13:33N 29°60' W 090°00'0 0.0
2016-Jul-26 12:33N 29°60' W 090°00'0 0.0
2016-Jul-26 11:33N 29°60' W 090°00'0 0.0
2016-Jul-26 10:33N 29°60' W 090°00'0 0.0
2016-Jul-26 09:33N 29°60' W 090°00'0 0.0
2016-Jul-26 08:33N 29°60' W 090°00'0 0.0
2016-Jul-26 07:33N 29°60' W 090°00'0 0.0
2016-Jul-26 06:33N 29°60' W 090°00'0 0.0
2016-Jul-26 05:33N 29°60' W 090°00'0 0.0
2016-Jul-26 04:33N 29°60' W 090°00'0 0.0
2016-Jul-26 03:33N 29°60' W 090°00'0 0.0
2016-Jul-26 02:33N 29°60' W 090°00'0 0.0
2016-Jul-26 01:33N 29°60' W 090°00'0 0.0
2016-Jul-26 00:33N 29°60' W 090°00'0 0.0
2016-Jul-25 23:33N 29°60' W 090°00'0 0.0
2016-Jul-25 22:33N 29°60' W 090°00'0 0.2
2016-Jul-25 21:33N 29°60' W 090°00'5 4.8
2016-Jul-25 20:28N 30°01' W 089°54'0 0.1
2016-Jul-25 19:33N 30°01' W 089°54'0 0.2
2016-Jul-25 18:28N 30°02' W 089°54'  
2016-Jul-22 08:23N 30°01' W 089°54'1 0.7
2016-Jul-22 07:33N 30°01' W 089°54'4 1.3
2016-Jul-22 04:33N 29°60' W 089°59'3 2.9
2016-Jul-22 03:33N 29°58' W 090°01'1 0.8
2016-Jul-22 02:33N 29°58' W 090°02'0 0.0
2016-Jul-22 01:33N 29°58' W 090°02'0 0.0
2016-Jul-22 00:33N 29°58' W 090°02'1 0.6
2016-Jul-21 23:33N 29°57' W 090°02'0 0.0
2016-Jul-21 22:33N 29°57' W 090°02'0 0.0
2016-Jul-21 21:33N 29°57' W 090°02'0 0.0
2016-Jul-21 20:33N 29°57' W 090°02'0 0.0
2016-Jul-21 19:33N 29°57' W 090°02'0 0.0
2016-Jul-21 18:33N 29°57' W 090°02'0 0.0
2016-Jul-21 17:33N 29°57' W 090°02'0 0.0
2016-Jul-21 16:33N 29°57' W 090°02'0 0.0
2016-Jul-21 15:33N 29°57' W 090°02'0 0.0
2016-Jul-21 14:33N 29°57' W 090°02'0 0.0
2016-Jul-21 13:33N 29°57' W 090°02'0 0.0
2016-Jul-21 12:33N 29°57' W 090°02'0 0.0
2016-Jul-21 11:33N 29°57' W 090°02'0 0.0
2016-Jul-21 10:33N 29°57' W 090°02'0 0.0
2016-Jul-21 09:33N 29°57' W 090°02'0 0.0
2016-Jul-21 08:33N 29°57' W 090°02'0 0.0
2016-Jul-21 07:33N 29°57' W 090°02'0 0.0
2016-Jul-21 06:33N 29°57' W 090°02'3 3.2
2016-Jul-21 05:33N 29°55' W 090°05'5 4.4
2016-Jul-21 04:32N 29°57' W 090°10'0 0.1
2016-Jul-21 03:33N 29°57' W 090°10'0 0.0
2016-Jul-21 02:33N 29°57' W 090°10'3 2.9
2016-Jul-21 01:33N 29°55' W 090°12'  
2016-Jul-18 01:33N 29°56' W 090°12'2 2.0
2016-Jul-18 00:33N 29°57' W 090°10'0 0.0
2016-Jul-17 23:34N 29°57' W 090°10'0 0.2
2016-Jul-17 22:33N 29°57' W 090°10'0 0.4
2016-Jul-17 21:33N 29°57' W 090°10'  

Dump ship's entire track history